Terminal Aerodrome Forecast
Issued by NWS

Home | Current Version | Previous Version | Text Only | Print | Product List | Glossary On
Versions: 1 2 3 4 5 6 7 8 9 10 11 12 13 14 15 16
000
FTUS44 KLZK 261732
TAFLLQ
TAF
KLLQ 261732Z 2618/2718 21006KT P6SM SCT250
     FM270000 12003KT P6SM SCT250
     FM270900 20008KT P6SM VCSH OVC050
     FM271500 20009KT P6SM OVC015=

USA.gov is the U.S. government's official web portal to all federal, state and local government web resources and services.